Terminal Aerodrome Forecast
Issued by NWS

Home | Current Version | Previous Version | Text Only | Print | Product List | Glossary On
Versions: 1 2 3 4 5 6 7 8 9 10 11 12 13 14 15 16 17 18
000
FTAK31 PANC 242342
TAFACD
TAF
PACD 242342Z 2500/2524 31022G31KT P6SM VCSH SCT025 OVC050
      TEMPO 2500/2503 6SM -SHRA BKN025
     FM250700 31014KT P6SM SCT025 BKN050
     FM251000 30009KT P6SM SCT025 BKN050
     FM251600 14009KT P6SM BKN025 OVC040
     FM252200 14018G27KT 5SM -RA BR BKN015 OVC025=

USA.gov is the U.S. government's official web portal to all federal, state and local government web resources and services.